createdAt,value
2022-09-25T00:00:28.658Z,2.30
2022-09-25T00:03:22.857Z,2.15
2022-09-25T00:06:17.883Z,2.53
2022-09-25T00:09:10.876Z,2.22
2022-09-25T00:12:03.848Z,1.70
2022-09-25T00:14:58.353Z,2.30
2022-09-25T00:17:52.180Z,2.00
2022-09-25T00:20:46.502Z,2.30
2022-09-25T00:23:40.341Z,2.45
2022-09-25T00:26:36.483Z,2.20
2022-09-25T00:29:30.851Z,2.10
2022-09-25T00:32:25.617Z,2.28
2022-09-25T00:35:18.501Z,2.20
2022-09-25T00:38:11.574Z,1.95
2022-09-25T00:41:06.356Z,1.88
2022-09-25T00:44:02.383Z,2.00
2022-09-25T00:46:55.986Z,2.10
2022-09-25T00:49:51.645Z,2.20
2022-09-25T00:52:45.351Z,2.20
2022-09-25T00:55:40.059Z,2.00
2022-09-25T00:58:36.026Z,2.20
2022-09-25T01:01:28.830Z,1.85
2022-09-25T01:04:23.076Z,1.65
2022-09-25T01:07:18.080Z,2.10
2022-09-25T01:10:12.791Z,2.13
2022-09-25T01:13:06.866Z,2.00
2022-09-25T01:16:06.034Z,2.10
2022-09-25T01:19:12.155Z,2.35
2022-09-25T01:22:16.590Z,2.10
2022-09-25T01:25:20.463Z,2.08
2022-09-25T01:28:29.910Z,2.03
2022-09-25T01:31:34.815Z,1.88
2022-09-25T01:34:31.312Z,2.05
2022-09-25T01:37:29.822Z,1.88
2022-09-25T01:40:29.030Z,2.03
2022-09-25T01:43:27.058Z,1.98
2022-09-25T01:46:21.848Z,1.90
2022-09-25T01:49:27.423Z,1.92
2022-09-25T01:52:27.082Z,1.75
2022-09-25T01:55:27.401Z,1.95
2022-09-25T01:58:24.873Z,1.85
2022-09-25T02:01:23.759Z,2.00
2022-09-25T02:04:22.615Z,2.00
2022-09-25T02:07:22.098Z,1.80
2022-09-25T02:10:19.025Z,1.67
2022-09-25T02:13:15.564Z,1.60
2022-09-25T02:16:12.229Z,1.85
2022-09-25T02:19:25.171Z,2.13
2022-09-25T02:22:24.545Z,1.80
2022-09-25T02:25:26.188Z,1.88
2022-09-25T02:28:19.936Z,1.70
2022-09-25T02:31:14.754Z,1.65
2022-09-25T02:34:13.739Z,2.03
2022-09-25T02:37:11.921Z,1.90
2022-09-25T02:40:06.939Z,1.98
2022-09-25T02:43:10.032Z,1.90
2022-09-25T02:46:10.394Z,1.92
2022-09-25T02:49:11.120Z,1.65
2022-09-25T02:52:09.172Z,1.83
2022-09-25T02:55:11.015Z,1.70
2022-09-25T02:58:08.083Z,2.05
2022-09-25T03:01:03.380Z,2.00
2022-09-25T03:03:59.588Z,1.55
2022-09-25T03:06:54.445Z,1.90
2022-09-25T03:09:50.937Z,2.15
2022-09-25T03:12:45.364Z,2.15
2022-09-25T03:15:38.840Z,2.08
2022-09-25T03:18:32.503Z,1.75
2022-09-25T03:21:25.547Z,1.80
2022-09-25T03:24:19.213Z,2.03
2022-09-25T03:27:12.461Z,1.77
2022-09-25T03:30:08.216Z,1.90
2022-09-25T03:33:01.503Z,1.85
2022-09-25T03:36:06.773Z,2.00
2022-09-25T03:39:00.416Z,1.73
2022-09-25T03:41:53.828Z,1.73
2022-09-25T03:44:47.127Z,1.95
2022-09-25T03:47:41.019Z,2.00
2022-09-25T03:50:34.082Z,2.10
2022-09-25T03:53:27.226Z,1.80
2022-09-25T03:56:24.140Z,1.65
2022-09-25T03:59:17.013Z,2.10
2022-09-25T04:02:10.601Z,1.98
2022-09-25T04:05:05.619Z,1.90
2022-09-25T04:08:00.631Z,1.60
2022-09-25T04:10:56.530Z,1.40
2022-09-25T04:13:50.001Z,1.70
2022-09-25T04:16:43.411Z,1.77
2022-09-25T04:19:36.855Z,1.80
2022-09-25T04:22:31.242Z,2.15
2022-09-25T04:25:25.575Z,1.75
2022-09-25T04:28:18.843Z,1.90
2022-09-25T04:31:11.716Z,1.75
2022-09-25T04:34:04.749Z,1.70
2022-09-25T04:36:57.897Z,1.83
2022-09-25T04:39:52.341Z,1.70
2022-09-25T04:42:46.193Z,2.08
2022-09-25T04:45:39.442Z,1.77
2022-09-25T04:48:34.088Z,1.48
2022-09-25T04:51:26.911Z,1.70
2022-09-25T04:54:19.880Z,1.85
2022-09-25T04:57:38.749Z,1.80
2022-09-25T05:00:33.009Z,1.75
2022-09-25T05:03:25.524Z,1.75
2022-09-25T05:06:18.940Z,2.08
2022-09-25T05:09:12.191Z,1.70
2022-09-25T05:12:05.492Z,2.08
2022-09-25T05:15:00.423Z,1.65
2022-09-25T05:18:01.113Z,1.55
2022-09-25T05:20:54.574Z,1.80
2022-09-25T05:23:47.856Z,1.73
2022-09-25T05:26:42.320Z,1.75
2022-09-25T05:29:35.988Z,2.45
2022-09-25T05:32:30.951Z,1.90
2022-09-25T05:35:24.471Z,1.63
2022-09-25T05:38:18.347Z,1.65
2022-09-25T05:41:12.471Z,2.05
2022-09-25T05:44:09.795Z,2.00
2022-09-25T05:47:04.021Z,1.40
2022-09-25T05:49:58.843Z,1.95
2022-09-25T05:52:56.973Z,2.25
2022-09-25T05:55:51.596Z,1.75
2022-09-25T05:58:44.866Z,1.88
2022-09-25T06:01:38.450Z,2.00
2022-09-25T06:04:32.035Z,1.80
2022-09-25T06:07:26.304Z,2.20
2022-09-25T06:10:18.924Z,2.00
2022-09-25T06:13:11.863Z,2.00
2022-09-25T06:16:06.327Z,2.08
2022-09-25T06:19:00.009Z,2.40
2022-09-25T06:21:52.912Z,2.50
2022-09-25T06:24:48.657Z,2.28
2022-09-25T06:27:41.942Z,2.00
2022-09-25T06:30:38.192Z,2.30
2022-09-25T06:33:31.117Z,2.05
2022-09-25T06:36:26.158Z,2.60
2022-09-25T06:39:19.819Z,2.55
2022-09-25T06:42:14.452Z,2.47
2022-09-25T06:45:10.815Z,2.80
2022-09-25T06:48:07.020Z,2.70
2022-09-25T06:51:01.392Z,2.25
2022-09-25T06:53:55.983Z,2.60
2022-09-25T06:56:50.443Z,2.65
2022-09-25T06:59:45.737Z,2.55
2022-09-25T07:03:05.007Z,2.25
2022-09-25T07:06:01.032Z,2.88
2022-09-25T07:08:53.994Z,2.70
2022-09-25T07:11:48.752Z,2.83
2022-09-25T07:14:43.745Z,2.30
2022-09-25T07:17:38.508Z,2.70
2022-09-25T07:20:32.262Z,2.30
2022-09-25T07:23:25.242Z,3.03
2022-09-25T07:26:22.189Z,2.47
2022-09-25T07:29:16.326Z,2.33
2022-09-25T07:32:08.916Z,2.75
2022-09-25T07:35:03.280Z,3.17
2022-09-25T07:37:57.444Z,2.67
2022-09-25T07:40:54.454Z,3.22
2022-09-25T07:43:47.882Z,3.40
2022-09-25T07:46:44.862Z,3.38
2022-09-25T07:49:39.404Z,3.60
2022-09-25T07:52:34.708Z,3.78
2022-09-25T07:55:29.177Z,3.50
2022-09-25T07:58:21.827Z,3.35
2022-09-25T08:01:15.332Z,3.55
2022-09-25T08:04:07.730Z,3.40
2022-09-25T08:07:01.079Z,2.97
2022-09-25T08:09:55.243Z,3.53
2022-09-25T08:12:48.175Z,3.78
2022-09-25T08:15:42.146Z,3.78
2022-09-25T08:18:35.089Z,3.65
2022-09-25T08:21:28.662Z,4.10
2022-09-25T08:24:22.296Z,3.63
2022-09-25T08:27:16.932Z,3.85
2022-09-25T08:30:12.450Z,3.72
2022-09-25T08:33:05.658Z,3.60
2022-09-25T08:36:00.176Z,3.47
2022-09-25T08:38:56.028Z,4.18
2022-09-25T08:41:51.190Z,3.50
2022-09-25T08:45:16.799Z,3.63
2022-09-25T08:48:20.529Z,3.15
2022-09-25T08:51:14.507Z,3.22
2022-09-25T08:54:08.465Z,3.38
2022-09-25T08:57:13.242Z,3.20
2022-09-25T09:00:14.892Z,3.38
2022-09-25T09:03:12.114Z,3.67
2022-09-25T09:06:08.267Z,3.40
2022-09-25T09:09:07.580Z,3.60
2022-09-25T09:12:07.243Z,4.03
2022-09-25T09:15:15.684Z,3.50
2022-09-25T09:18:19.454Z,3.70
2022-09-25T09:21:25.463Z,3.20
2022-09-25T09:24:19.711Z,3.42
2022-09-25T09:27:29.893Z,3.50
2022-09-25T09:30:29.303Z,3.42
2022-09-25T09:33:35.196Z,3.20
2022-09-25T09:36:36.070Z,3.15
2022-09-25T09:39:36.133Z,3.38
2022-09-25T09:42:37.950Z,2.90
2022-09-25T09:45:44.358Z,3.55
2022-09-25T09:48:43.303Z,2.88
2022-09-25T09:51:43.483Z,3.35
2022-09-25T09:54:42.847Z,2.90
2022-09-25T09:57:51.838Z,2.80
2022-09-25T10:00:48.759Z,3.20
2022-09-25T10:03:44.901Z,3.20
2022-09-25T10:06:40.107Z,3.15
2022-09-25T10:09:33.548Z,2.67
2022-09-25T10:12:30.994Z,3.03
2022-09-25T10:15:31.650Z,3.10
2022-09-25T10:18:31.670Z,3.30
2022-09-25T10:21:28.045Z,3.25
2022-09-25T10:24:52.998Z,2.85
2022-09-25T10:27:47.948Z,3.20
2022-09-25T10:30:47.802Z,3.35
2022-09-25T10:33:43.015Z,3.25
2022-09-25T10:36:39.816Z,3.05
2022-09-25T10:39:50.615Z,3.47
2022-09-25T10:42:44.199Z,2.95
2022-09-25T10:45:40.729Z,2.72
2022-09-25T10:49:01.968Z,2.80
2022-09-25T10:52:06.354Z,2.95
2022-09-25T10:55:16.310Z,2.92
2022-09-25T10:58:14.986Z,3.22
2022-09-25T11:01:13.446Z,2.70
2022-09-25T11:04:16.371Z,3.08
2022-09-25T11:07:20.895Z,2.88
2022-09-25T11:10:21.144Z,2.83
2022-09-25T11:13:24.201Z,2.45
2022-09-25T11:16:18.150Z,2.78
2022-09-25T11:19:14.237Z,2.83
2022-09-25T11:22:17.985Z,2.83
2022-09-25T11:25:17.418Z,2.65
2022-09-25T11:28:14.812Z,2.75
2022-09-25T11:31:22.341Z,2.78
2022-09-25T11:34:25.355Z,2.88
2022-09-25T11:37:25.632Z,2.78
2022-09-25T11:40:50.206Z,2.55
2022-09-25T11:43:58.395Z,2.50
2022-09-25T11:47:01.060Z,2.90
2022-09-25T11:49:58.165Z,2.33
2022-09-25T11:53:02.272Z,2.22
2022-09-25T11:56:07.512Z,2.20
2022-09-25T11:59:17.871Z,2.38
2022-09-25T12:02:22.207Z,2.35
2022-09-25T12:05:34.006Z,2.35
2022-09-25T12:08:44.044Z,2.78
2022-09-25T12:11:46.475Z,2.65
2022-09-25T12:14:48.491Z,2.72
2022-09-25T12:17:51.916Z,2.28
2022-09-25T12:20:53.557Z,2.45
2022-09-25T12:23:54.419Z,2.03
2022-09-25T12:26:56.337Z,2.20
2022-09-25T12:30:09.321Z,2.20
2022-09-25T12:33:22.597Z,1.92
2022-09-25T12:36:22.400Z,2.20
2022-09-25T12:39:29.979Z,2.20
2022-09-25T12:42:30.945Z,2.22
2022-09-25T12:45:32.729Z,1.98
2022-09-25T12:48:34.230Z,2.30
2022-09-25T12:51:35.062Z,2.25
2022-09-25T12:54:35.484Z,2.45
2022-09-25T12:57:32.635Z,2.00
2022-09-25T13:00:29.371Z,2.08
2022-09-25T13:03:43.302Z,2.28
2022-09-25T13:06:45.390Z,2.47
2022-09-25T13:09:44.762Z,2.58
2022-09-25T13:12:38.997Z,2.55
2022-09-25T13:15:35.092Z,2.70
2022-09-25T13:18:30.649Z,2.38
2022-09-25T13:21:26.613Z,1.98
2022-09-25T13:24:19.876Z,2.17
2022-09-25T13:27:19.567Z,2.50
2022-09-25T13:30:22.553Z,1.80
2022-09-25T13:33:22.138Z,2.22
2022-09-25T13:36:32.080Z,2.00
2022-09-25T13:39:49.124Z,2.50
2022-09-25T13:42:46.331Z,2.30
2022-09-25T13:45:41.008Z,2.50
2022-09-25T13:48:37.603Z,2.28
2022-09-25T13:51:37.337Z,2.53
2022-09-25T13:54:34.491Z,2.90
2022-09-25T13:58:03.546Z,3.75
2022-09-25T14:00:58.945Z,3.95
2022-09-25T14:03:52.562Z,4.30
2022-09-25T14:06:48.301Z,4.55
2022-09-25T14:09:45.885Z,5.30
2022-09-25T14:12:44.137Z,4.88
2022-09-25T14:15:40.873Z,5.68
2022-09-25T14:18:40.928Z,6.00
2022-09-25T14:21:35.287Z,6.30
2022-09-25T14:24:31.377Z,6.28
2022-09-25T14:27:27.767Z,6.65
2022-09-25T14:30:21.700Z,6.43
2022-09-25T14:33:47.480Z,6.38
2022-09-25T14:36:53.944Z,7.57
2022-09-25T14:39:56.094Z,6.55
2022-09-25T14:43:16.540Z,5.88
2022-09-25T14:46:13.844Z,6.28
2022-09-25T14:49:24.790Z,5.60
2022-09-25T14:52:23.969Z,6.07
2022-09-25T14:55:21.110Z,5.85
2022-09-25T14:58:18.807Z,5.43
2022-09-25T15:01:22.839Z,5.57
2022-09-25T15:04:26.896Z,4.78
2022-09-25T15:07:24.456Z,5.18
2022-09-25T15:10:29.554Z,5.45
2022-09-25T15:13:22.499Z,5.03
2022-09-25T15:16:36.949Z,4.93
2022-09-25T15:19:34.937Z,4.82
2022-09-25T15:22:33.935Z,4.35
2022-09-25T15:25:30.847Z,5.28
2022-09-25T15:28:27.417Z,4.45
2022-09-25T15:31:20.320Z,5.15
2022-09-25T15:34:15.112Z,4.90
2022-09-25T15:37:20.838Z,4.20
2022-09-25T15:40:25.520Z,4.38
2022-09-25T15:43:19.758Z,4.63
2022-09-25T15:46:37.878Z,4.25
2022-09-25T15:49:34.877Z,4.28
2022-09-25T15:52:33.952Z,4.28
2022-09-25T15:55:32.925Z,4.07
2022-09-25T15:58:26.393Z,4.05
2022-09-25T16:01:40.255Z,4.13
2022-09-25T16:04:49.475Z,3.70
2022-09-25T16:07:44.458Z,4.32
2022-09-25T16:10:37.155Z,4.05
2022-09-25T16:13:31.216Z,3.78
2022-09-25T16:16:29.396Z,4.10
2022-09-25T16:19:32.236Z,4.07
2022-09-25T16:22:25.744Z,4.10
2022-09-25T16:25:25.663Z,3.65
2022-09-25T16:28:21.402Z,3.85
2022-09-25T16:31:14.628Z,3.63
2022-09-25T16:34:11.055Z,3.80
2022-09-25T16:37:06.726Z,3.67
2022-09-25T16:40:25.287Z,4.00
2022-09-25T16:43:27.740Z,3.80
2022-09-25T16:46:23.178Z,3.72
2022-09-25T16:49:18.447Z,3.70
2022-09-25T16:52:20.198Z,3.47
2022-09-25T16:55:22.733Z,3.47
2022-09-25T16:58:15.912Z,3.35
2022-09-25T17:01:11.393Z,4.13
2022-09-25T17:04:04.326Z,3.22
2022-09-25T17:06:58.843Z,3.35
2022-09-25T17:09:52.690Z,3.88
2022-09-25T17:12:51.237Z,3.25
2022-09-25T17:15:47.522Z,3.72
2022-09-25T17:18:43.054Z,3.55
2022-09-25T17:21:36.353Z,3.17
2022-09-25T17:24:30.508Z,3.40
2022-09-25T17:27:23.466Z,3.60
2022-09-25T17:30:16.393Z,3.53
2022-09-25T17:33:15.839Z,3.95
2022-09-25T17:36:13.753Z,3.08
2022-09-25T17:39:06.458Z,3.15
2022-09-25T17:41:59.731Z,3.42
2022-09-25T17:44:52.549Z,3.25
2022-09-25T17:47:45.808Z,3.60
2022-09-25T17:50:39.547Z,3.00
2022-09-25T17:53:35.141Z,3.60
2022-09-25T17:56:29.531Z,3.22
2022-09-25T17:59:22.808Z,3.25
2022-09-25T18:02:17.927Z,2.88
2022-09-25T18:05:16.468Z,2.90
2022-09-25T18:08:09.766Z,3.13
2022-09-25T18:11:03.973Z,2.92
2022-09-25T18:14:01.046Z,3.13
2022-09-25T18:16:54.701Z,2.92
2022-09-25T18:20:04.874Z,3.38
2022-09-25T18:22:58.328Z,3.10
2022-09-25T18:25:51.788Z,3.22
2022-09-25T18:28:46.013Z,3.15
2022-09-25T18:31:39.647Z,3.22
2022-09-25T18:34:32.621Z,2.80
2022-09-25T18:37:25.773Z,3.25
2022-09-25T18:40:20.730Z,2.92
2022-09-25T18:43:13.835Z,2.60
2022-09-25T18:46:08.425Z,3.10
2022-09-25T18:49:01.333Z,3.10
2022-09-25T18:51:55.625Z,2.45
2022-09-25T18:54:49.101Z,2.83
2022-09-25T18:57:43.154Z,2.80
2022-09-25T19:00:36.445Z,2.60
2022-09-25T19:03:30.908Z,3.17
2022-09-25T19:06:24.618Z,2.65
2022-09-25T19:09:19.901Z,2.58
2022-09-25T19:12:15.175Z,2.95
2022-09-25T19:15:09.736Z,2.75
2022-09-25T19:18:02.652Z,2.67
2022-09-25T19:20:56.446Z,2.63
2022-09-25T19:23:50.418Z,3.00
2022-09-25T19:26:44.298Z,3.22
2022-09-25T19:29:37.692Z,2.92
2022-09-25T19:32:31.094Z,2.75
2022-09-25T19:35:24.665Z,2.78
2022-09-25T19:38:18.640Z,3.38
2022-09-25T19:41:14.794Z,2.80
2022-09-25T19:44:13.381Z,3.10
2022-09-25T19:47:06.418Z,2.92
2022-09-25T19:49:59.927Z,2.35
2022-09-25T19:52:54.608Z,2.65
2022-09-25T19:55:54.179Z,2.60
2022-09-25T19:58:50.569Z,2.67
2022-09-25T20:01:44.755Z,2.30
2022-09-25T20:04:37.725Z,2.97
2022-09-25T20:07:30.595Z,2.80
2022-09-25T20:10:23.816Z,2.65
2022-09-25T20:13:18.973Z,2.70
2022-09-25T20:16:15.966Z,2.47
2022-09-25T20:19:09.689Z,2.72
2022-09-25T20:22:03.132Z,2.75
2022-09-25T20:24:57.442Z,2.58
2022-09-25T20:27:52.048Z,2.65
2022-09-25T20:30:47.118Z,2.40
2022-09-25T20:33:42.235Z,2.35
2022-09-25T20:36:38.964Z,2.58
2022-09-25T20:39:32.099Z,2.35
2022-09-25T20:42:26.398Z,2.50
2022-09-25T20:45:19.917Z,2.15
2022-09-25T20:48:18.119Z,2.50
2022-09-25T20:51:14.938Z,2.60
2022-09-25T20:54:10.621Z,2.53
2022-09-25T20:57:03.372Z,2.33
2022-09-25T20:59:56.805Z,2.55
2022-09-25T21:02:49.752Z,2.28
2022-09-25T21:05:46.566Z,2.10
2022-09-25T21:08:39.716Z,2.40
2022-09-25T21:11:33.873Z,2.30
2022-09-25T21:14:28.511Z,2.63
2022-09-25T21:17:21.826Z,2.58
2022-09-25T21:20:14.649Z,2.20
2022-09-25T21:23:09.095Z,2.50
2022-09-25T21:26:04.163Z,2.20
2022-09-25T21:29:00.300Z,2.13
2022-09-25T21:31:55.227Z,2.75
2022-09-25T21:34:48.643Z,2.55
2022-09-25T21:37:41.693Z,2.78
2022-09-25T21:40:36.364Z,2.28
2022-09-25T21:43:31.261Z,2.60
2022-09-25T21:46:26.331Z,2.30
2022-09-25T21:49:21.513Z,2.25
2022-09-25T21:52:14.845Z,2.40
2022-09-25T21:55:10.019Z,2.55
2022-09-25T21:58:06.121Z,2.58
2022-09-25T22:01:07.455Z,2.80
2022-09-25T22:04:01.194Z,2.50
2022-09-25T22:06:54.653Z,2.47
2022-09-25T22:09:48.237Z,2.45
2022-09-25T22:12:41.700Z,2.80
2022-09-25T22:15:36.392Z,2.85
2022-09-25T22:18:30.402Z,1.88
2022-09-25T22:21:25.263Z,2.30
2022-09-25T22:24:18.757Z,2.45
2022-09-25T22:27:12.072Z,2.40
2022-09-25T22:30:06.385Z,2.40
2022-09-25T22:33:01.100Z,2.42
2022-09-25T22:35:59.824Z,3.15
2022-09-25T22:38:52.640Z,2.53
2022-09-25T22:41:46.105Z,2.15
2022-09-25T22:44:39.908Z,2.40
2022-09-25T22:47:32.798Z,2.28
2022-09-25T22:50:27.296Z,2.00
2022-09-25T22:53:21.454Z,2.35
2022-09-25T22:56:17.551Z,2.63
2022-09-25T22:59:12.889Z,1.88
2022-09-25T23:02:05.759Z,2.17
2022-09-25T23:05:02.769Z,1.98
2022-09-25T23:08:00.138Z,2.60
2022-09-25T23:11:06.568Z,2.58
2022-09-25T23:14:03.044Z,2.28
2022-09-25T23:16:56.274Z,2.40
2022-09-25T23:19:50.216Z,2.60
2022-09-25T23:22:43.694Z,2.20
2022-09-25T23:25:38.475Z,2.33
2022-09-25T23:28:33.923Z,2.33
2022-09-25T23:31:27.269Z,2.40
2022-09-25T23:34:20.771Z,2.47
2022-09-25T23:37:14.603Z,2.47
2022-09-25T23:40:13.441Z,1.80
2022-09-25T23:43:10.849Z,2.13
2022-09-25T23:46:03.754Z,2.33
2022-09-25T23:48:57.261Z,2.20
2022-09-25T23:51:50.649Z,2.13
2022-09-25T23:54:43.910Z,2.15
2022-09-25T23:57:37.434Z,2.45
